Terminal Aerodrome Forecast
Issued by NWS

Home | Current Version | Previous Version | Text Only | Print | Product List | Glossary On
Versions: 1 2 3 4 5 6 7 8 9 10 11 12 13 14 15 16 17 18
000
FTUS41 KCAR 280531
TAFBHB
TAF
KBHB 280531Z 2806/2906 01016G28KT 5SM -SN BLSN OVC020
     FM281200 35014G23KT 6SM -SHSN BLSN OVC020
     FM281900 34010G18KT P6SM BKN040
     FM282300 32007KT P6SM SCT035
      AMD LTD TO CLD VIS AND WIND=

USA.gov is the U.S. government's official web portal to all federal, state and local government web resources and services.